sensor_id;sensor_type;location;lat;lon;timestamp;P1;durP1;ratioP1;P2;durP2;ratioP2
37097;SDS011;63608;49.572;12.348;2023-06-26T00:00:41;6.43;;;4.67;;
37097;SDS011;63608;49.572;12.348;2023-06-26T00:02:43;7.57;;;5.10;;
37097;SDS011;63608;49.572;12.348;2023-06-26T00:04:46;7.47;;;5.27;;
37097;SDS011;63608;49.572;12.348;2023-06-26T00:06:48;7.53;;;5.27;;
37097;SDS011;63608;49.572;12.348;2023-06-26T00:08:50;7.77;;;5.20;;
37097;SDS011;63608;49.572;12.348;2023-06-26T00:10:53;7.43;;;5.00;;
37097;SDS011;63608;49.572;12.348;2023-06-26T00:12:55;6.90;;;4.80;;
37097;SDS011;63608;49.572;12.348;2023-06-26T00:14:57;6.30;;;4.67;;
37097;SDS011;63608;49.572;12.348;2023-06-26T00:16:59;8.63;;;5.30;;
37097;SDS011;63608;49.572;12.348;2023-06-26T00:19:01;6.00;;;4.73;;
37097;SDS011;63608;49.572;12.348;2023-06-26T00:21:05;10.90;;;5.37;;
37097;SDS011;63608;49.572;12.348;2023-06-26T00:23:07;9.10;;;5.40;;
37097;SDS011;63608;49.572;12.348;2023-06-26T00:25:09;6.60;;;4.73;;
37097;SDS011;63608;49.572;12.348;2023-06-26T00:27:11;7.13;;;4.67;;
37097;SDS011;63608;49.572;12.348;2023-06-26T00:29:13;7.60;;;5.00;;
37097;SDS011;63608;49.572;12.348;2023-06-26T00:31:15;6.27;;;4.87;;
37097;SDS011;63608;49.572;12.348;2023-06-26T00:33:32;6.57;;;4.93;;
37097;SDS011;63608;49.572;12.348;2023-06-26T00:35:35;5.80;;;4.90;;
37097;SDS011;63608;49.572;12.348;2023-06-26T00:37:38;6.20;;;4.50;;
37097;SDS011;63608;49.572;12.348;2023-06-26T00:39:40;6.67;;;4.50;;
37097;SDS011;63608;49.572;12.348;2023-06-26T00:41:42;6.83;;;5.10;;
37097;SDS011;63608;49.572;12.348;2023-06-26T00:43:44;5.17;;;4.40;;
37097;SDS011;63608;49.572;12.348;2023-06-26T00:45:46;5.47;;;4.20;;
37097;SDS011;63608;49.572;12.348;2023-06-26T00:47:48;6.33;;;4.50;;
37097;SDS011;63608;49.572;12.348;2023-06-26T00:49:51;5.33;;;4.47;;
37097;SDS011;63608;49.572;12.348;2023-06-26T00:51:53;6.20;;;4.60;;
37097;SDS011;63608;49.572;12.348;2023-06-26T00:53:57;5.77;;;4.33;;
37097;SDS011;63608;49.572;12.348;2023-06-26T00:55:59;6.30;;;5.00;;
37097;SDS011;63608;49.572;12.348;2023-06-26T00:58:02;5.10;;;4.60;;
37097;SDS011;63608;49.572;12.348;2023-06-26T01:00:03;5.27;;;4.37;;
37097;SDS011;63608;49.572;12.348;2023-06-26T01:02:06;6.73;;;4.60;;
37097;SDS011;63608;49.572;12.348;2023-06-26T01:04:10;6.40;;;4.50;;
37097;SDS011;63608;49.572;12.348;2023-06-26T01:06:17;6.67;;;5.03;;
37097;SDS011;63608;49.572;12.348;2023-06-26T01:08:20;8.13;;;4.97;;
37097;SDS011;63608;49.572;12.348;2023-06-26T01:10:23;8.00;;;4.80;;
37097;SDS011;63608;49.572;12.348;2023-06-26T01:12:27;6.77;;;4.83;;
37097;SDS011;63608;49.572;12.348;2023-06-26T01:14:29;6.20;;;4.50;;
37097;SDS011;63608;49.572;12.348;2023-06-26T01:16:32;9.47;;;4.93;;
37097;SDS011;63608;49.572;12.348;2023-06-26T01:18:34;7.43;;;5.10;;
37097;SDS011;63608;49.572;12.348;2023-06-26T01:20:38;6.43;;;4.77;;
37097;SDS011;63608;49.572;12.348;2023-06-26T01:22:44;6.20;;;4.50;;
37097;SDS011;63608;49.572;12.348;2023-06-26T01:24:53;6.80;;;4.83;;
37097;SDS011;63608;49.572;12.348;2023-06-26T01:27:03;7.60;;;5.30;;
37097;SDS011;63608;49.572;12.348;2023-06-26T01:29:06;7.30;;;5.53;;
37097;SDS011;63608;49.572;12.348;2023-06-26T01:31:09;6.70;;;5.00;;
37097;SDS011;63608;49.572;12.348;2023-06-26T01:33:12;6.20;;;5.10;;
37097;SDS011;63608;49.572;12.348;2023-06-26T01:35:14;9.80;;;6.27;;
37097;SDS011;63608;49.572;12.348;2023-06-26T01:37:17;7.80;;;5.30;;
37097;SDS011;63608;49.572;12.348;2023-06-26T01:39:19;8.40;;;5.60;;
37097;SDS011;63608;49.572;12.348;2023-06-26T01:41:21;8.97;;;5.73;;
37097;SDS011;63608;49.572;12.348;2023-06-26T01:43:26;8.67;;;5.90;;
37097;SDS011;63608;49.572;12.348;2023-06-26T01:45:30;8.90;;;5.83;;
37097;SDS011;63608;49.572;12.348;2023-06-26T01:47:34;9.40;;;6.17;;
37097;SDS011;63608;49.572;12.348;2023-06-26T01:49:42;8.40;;;5.90;;
37097;SDS011;63608;49.572;12.348;2023-06-26T01:51:51;6.80;;;5.10;;
37097;SDS011;63608;49.572;12.348;2023-06-26T01:53:57;7.10;;;5.43;;
37097;SDS011;63608;49.572;12.348;2023-06-26T01:56:03;9.33;;;5.73;;
37097;SDS011;63608;49.572;12.348;2023-06-26T01:58:08;6.77;;;5.10;;
37097;SDS011;63608;49.572;12.348;2023-06-26T02:00:12;7.10;;;5.17;;
37097;SDS011;63608;49.572;12.348;2023-06-26T02:02:18;7.77;;;5.33;;
37097;SDS011;63608;49.572;12.348;2023-06-26T02:04:20;7.10;;;5.17;;
37097;SDS011;63608;49.572;12.348;2023-06-26T02:06:22;7.13;;;5.13;;
37097;SDS011;63608;49.572;12.348;2023-06-26T02:08:24;9.23;;;5.60;;
37097;SDS011;63608;49.572;12.348;2023-06-26T02:10:26;8.57;;;5.97;;
37097;SDS011;63608;49.572;12.348;2023-06-26T02:12:28;7.13;;;5.00;;
37097;SDS011;63608;49.572;12.348;2023-06-26T02:14:30;7.67;;;5.60;;
37097;SDS011;63608;49.572;12.348;2023-06-26T02:16:33;10.07;;;6.43;;
37097;SDS011;63608;49.572;12.348;2023-06-26T02:18:35;8.07;;;5.30;;
37097;SDS011;63608;49.572;12.348;2023-06-26T02:20:37;9.87;;;6.17;;
37097;SDS011;63608;49.572;12.348;2023-06-26T02:22:40;9.27;;;6.60;;
37097;SDS011;63608;49.572;12.348;2023-06-26T02:24:42;11.03;;;6.13;;
37097;SDS011;63608;49.572;12.348;2023-06-26T02:26:45;8.83;;;6.07;;
37097;SDS011;63608;49.572;12.348;2023-06-26T02:28:47;9.40;;;6.17;;
37097;SDS011;63608;49.572;12.348;2023-06-26T02:30:49;13.23;;;6.20;;
37097;SDS011;63608;49.572;12.348;2023-06-26T02:32:53;7.83;;;6.07;;
37097;SDS011;63608;49.572;12.348;2023-06-26T02:34:55;9.37;;;5.90;;
37097;SDS011;63608;49.572;12.348;2023-06-26T02:36:57;9.23;;;5.70;;
37097;SDS011;63608;49.572;12.348;2023-06-26T02:39:01;7.50;;;5.73;;
37097;SDS011;63608;49.572;12.348;2023-06-26T02:41:03;8.00;;;5.80;;
37097;SDS011;63608;49.572;12.348;2023-06-26T02:43:06;7.40;;;5.77;;
37097;SDS011;63608;49.572;12.348;2023-06-26T02:45:08;8.47;;;5.70;;
37097;SDS011;63608;49.572;12.348;2023-06-26T02:47:11;7.83;;;5.47;;
37097;SDS011;63608;49.572;12.348;2023-06-26T02:49:14;9.60;;;6.53;;
37097;SDS011;63608;49.572;12.348;2023-06-26T02:51:16;7.40;;;5.77;;
37097;SDS011;63608;49.572;12.348;2023-06-26T02:53:18;10.87;;;7.27;;
37097;SDS011;63608;49.572;12.348;2023-06-26T02:55:20;8.60;;;5.63;;
37097;SDS011;63608;49.572;12.348;2023-06-26T02:57:22;9.27;;;6.00;;
37097;SDS011;63608;49.572;12.348;2023-06-26T02:59:24;10.53;;;6.57;;
37097;SDS011;63608;49.572;12.348;2023-06-26T03:01:26;7.50;;;5.43;;
37097;SDS011;63608;49.572;12.348;2023-06-26T03:03:28;9.47;;;6.13;;
37097;SDS011;63608;49.572;12.348;2023-06-26T03:05:31;8.90;;;6.30;;
37097;SDS011;63608;49.572;12.348;2023-06-26T03:07:33;9.53;;;6.27;;
37097;SDS011;63608;49.572;12.348;2023-06-26T03:09:35;8.90;;;6.00;;
37097;SDS011;63608;49.572;12.348;2023-06-26T03:11:37;8.80;;;5.73;;
37097;SDS011;63608;49.572;12.348;2023-06-26T03:13:39;6.90;;;5.30;;
37097;SDS011;63608;49.572;12.348;2023-06-26T03:15:41;8.53;;;5.77;;
37097;SDS011;63608;49.572;12.348;2023-06-26T03:17:43;6.47;;;5.10;;
37097;SDS011;63608;49.572;12.348;2023-06-26T03:19:45;7.23;;;5.33;;
37097;SDS011;63608;49.572;12.348;2023-06-26T03:21:48;8.87;;;5.80;;
37097;SDS011;63608;49.572;12.348;2023-06-26T03:23:51;10.30;;;5.67;;
37097;SDS011;63608;49.572;12.348;2023-06-26T03:25:53;9.13;;;6.33;;
37097;SDS011;63608;49.572;12.348;2023-06-26T03:27:54;9.90;;;6.83;;
37097;SDS011;63608;49.572;12.348;2023-06-26T03:29:56;10.80;;;6.17;;
37097;SDS011;63608;49.572;12.348;2023-06-26T03:31:58;10.10;;;6.00;;
37097;SDS011;63608;49.572;12.348;2023-06-26T03:34:01;8.20;;;6.23;;
37097;SDS011;63608;49.572;12.348;2023-06-26T03:36:03;10.00;;;6.80;;
37097;SDS011;63608;49.572;12.348;2023-06-26T03:38:07;8.00;;;5.63;;
37097;SDS011;63608;49.572;12.348;2023-06-26T03:40:09;8.47;;;6.50;;
37097;SDS011;63608;49.572;12.348;2023-06-26T03:42:12;9.50;;;6.00;;
37097;SDS011;63608;49.572;12.348;2023-06-26T03:44:14;9.27;;;6.37;;
37097;SDS011;63608;49.572;12.348;2023-06-26T03:46:16;8.80;;;5.90;;
37097;SDS011;63608;49.572;12.348;2023-06-26T03:48:18;8.90;;;6.50;;
37097;SDS011;63608;49.572;12.348;2023-06-26T03:50:20;9.70;;;5.80;;
37097;SDS011;63608;49.572;12.348;2023-06-26T03:52:22;8.70;;;6.50;;
37097;SDS011;63608;49.572;12.348;2023-06-26T03:54:26;8.33;;;6.17;;
37097;SDS011;63608;49.572;12.348;2023-06-26T03:56:28;10.90;;;6.80;;
37097;SDS011;63608;49.572;12.348;2023-06-26T03:58:30;10.63;;;6.00;;
37097;SDS011;63608;49.572;12.348;2023-06-26T04:00:32;10.13;;;5.87;;
37097;SDS011;63608;49.572;12.348;2023-06-26T04:02:34;8.47;;;5.70;;
37097;SDS011;63608;49.572;12.348;2023-06-26T04:04:37;9.90;;;6.07;;
37097;SDS011;63608;49.572;12.348;2023-06-26T04:06:39;10.43;;;6.33;;
37097;SDS011;63608;49.572;12.348;2023-06-26T04:08:41;10.73;;;6.40;;
37097;SDS011;63608;49.572;12.348;2023-06-26T04:10:44;10.77;;;6.67;;
37097;SDS011;63608;49.572;12.348;2023-06-26T04:12:47;9.70;;;6.80;;
37097;SDS011;63608;49.572;12.348;2023-06-26T04:14:49;9.40;;;5.83;;
37097;SDS011;63608;49.572;12.348;2023-06-26T04:16:52;10.67;;;6.47;;
37097;SDS011;63608;49.572;12.348;2023-06-26T04:18:54;10.67;;;7.10;;
37097;SDS011;63608;49.572;12.348;2023-06-26T04:21:09;10.50;;;7.07;;
37097;SDS011;63608;49.572;12.348;2023-06-26T04:23:12;8.87;;;6.57;;
37097;SDS011;63608;49.572;12.348;2023-06-26T04:25:14;10.93;;;6.90;;
37097;SDS011;63608;49.572;12.348;2023-06-26T04:27:17;9.60;;;6.40;;
37097;SDS011;63608;49.572;12.348;2023-06-26T04:29:19;9.67;;;7.00;;
37097;SDS011;63608;49.572;12.348;2023-06-26T04:31:21;12.03;;;6.50;;
37097;SDS011;63608;49.572;12.348;2023-06-26T04:33:23;9.80;;;6.17;;
37097;SDS011;63608;49.572;12.348;2023-06-26T04:35:25;18.70;;;7.47;;
37097;SDS011;63608;49.572;12.348;2023-06-26T04:37:27;9.13;;;6.40;;
37097;SDS011;63608;49.572;12.348;2023-06-26T04:39:29;11.25;;;7.55;;
37097;SDS011;63608;49.572;12.348;2023-06-26T04:41:31;10.57;;;7.20;;
37097;SDS011;63608;49.572;12.348;2023-06-26T04:43:34;12.35;;;7.32;;
37097;SDS011;63608;49.572;12.348;2023-06-26T04:45:36;11.10;;;6.23;;
37097;SDS011;63608;49.572;12.348;2023-06-26T04:47:38;10.50;;;6.90;;
37097;SDS011;63608;49.572;12.348;2023-06-26T04:49:41;12.60;;;7.50;;
37097;SDS011;63608;49.572;12.348;2023-06-26T04:51:46;9.77;;;6.63;;
37097;SDS011;63608;49.572;12.348;2023-06-26T04:53:48;11.30;;;7.30;;
37097;SDS011;63608;49.572;12.348;2023-06-26T04:55:50;14.40;;;7.30;;
37097;SDS011;63608;49.572;12.348;2023-06-26T04:57:52;10.40;;;6.93;;
37097;SDS011;63608;49.572;12.348;2023-06-26T04:59:56;15.83;;;6.63;;
37097;SDS011;63608;49.572;12.348;2023-06-26T05:01:58;10.13;;;6.40;;
37097;SDS011;63608;49.572;12.348;2023-06-26T05:03:59;8.53;;;6.50;;
37097;SDS011;63608;49.572;12.348;2023-06-26T05:06:02;15.70;;;7.47;;
37097;SDS011;63608;49.572;12.348;2023-06-26T05:08:14;10.03;;;6.47;;
37097;SDS011;63608;49.572;12.348;2023-06-26T05:10:16;10.43;;;7.43;;
37097;SDS011;63608;49.572;12.348;2023-06-26T05:12:18;10.87;;;7.67;;
37097;SDS011;63608;49.572;12.348;2023-06-26T05:14:20;10.43;;;6.83;;
37097;SDS011;63608;49.572;12.348;2023-06-26T05:16:23;9.87;;;7.10;;
37097;SDS011;63608;49.572;12.348;2023-06-26T05:18:25;10.10;;;6.80;;
37097;SDS011;63608;49.572;12.348;2023-06-26T05:20:27;9.73;;;6.90;;
37097;SDS011;63608;49.572;12.348;2023-06-26T05:22:29;9.30;;;6.70;;
37097;SDS011;63608;49.572;12.348;2023-06-26T05:24:31;8.83;;;6.57;;
37097;SDS011;63608;49.572;12.348;2023-06-26T05:26:33;20.20;;;7.67;;
37097;SDS011;63608;49.572;12.348;2023-06-26T05:28:36;10.43;;;7.40;;
37097;SDS011;63608;49.572;12.348;2023-06-26T05:30:39;10.10;;;7.30;;
37097;SDS011;63608;49.572;12.348;2023-06-26T05:32:42;11.23;;;7.00;;
37097;SDS011;63608;49.572;12.348;2023-06-26T05:34:47;13.40;;;7.70;;
37097;SDS011;63608;49.572;12.348;2023-06-26T05:36:50;10.77;;;7.00;;
37097;SDS011;63608;49.572;12.348;2023-06-26T05:38:53;11.00;;;7.50;;
37097;SDS011;63608;49.572;12.348;2023-06-26T05:40:56;8.90;;;6.30;;
37097;SDS011;63608;49.572;12.348;2023-06-26T05:42:59;12.23;;;7.33;;
37097;SDS011;63608;49.572;12.348;2023-06-26T05:45:01;10.50;;;6.87;;
37097;SDS011;63608;49.572;12.348;2023-06-26T05:47:03;11.37;;;8.03;;
37097;SDS011;63608;49.572;12.348;2023-06-26T05:49:07;10.57;;;6.80;;
37097;SDS011;63608;49.572;12.348;2023-06-26T05:51:09;11.67;;;7.63;;
37097;SDS011;63608;49.572;12.348;2023-06-26T05:53:12;10.10;;;6.60;;
37097;SDS011;63608;49.572;12.348;2023-06-26T05:55:15;11.13;;;7.20;;
37097;SDS011;63608;49.572;12.348;2023-06-26T05:57:17;9.80;;;7.10;;
37097;SDS011;63608;49.572;12.348;2023-06-26T05:59:20;9.90;;;6.70;;
37097;SDS011;63608;49.572;12.348;2023-06-26T06:01:22;10.07;;;6.93;;
37097;SDS011;63608;49.572;12.348;2023-06-26T06:03:24;11.23;;;7.20;;
37097;SDS011;63608;49.572;12.348;2023-06-26T06:05:28;10.07;;;6.90;;
37097;SDS011;63608;49.572;12.348;2023-06-26T06:07:30;14.00;;;7.73;;
37097;SDS011;63608;49.572;12.348;2023-06-26T06:09:32;10.50;;;6.80;;
37097;SDS011;63608;49.572;12.348;2023-06-26T06:11:34;9.13;;;6.33;;
37097;SDS011;63608;49.572;12.348;2023-06-26T06:13:36;8.60;;;6.10;;
37097;SDS011;63608;49.572;12.348;2023-06-26T06:15:38;8.57;;;6.43;;
37097;SDS011;63608;49.572;12.348;2023-06-26T06:17:40;8.97;;;6.47;;
37097;SDS011;63608;49.572;12.348;2023-06-26T06:19:42;9.67;;;6.40;;
37097;SDS011;63608;49.572;12.348;2023-06-26T06:21:45;13.00;;;7.00;;
37097;SDS011;63608;49.572;12.348;2023-06-26T06:23:47;10.40;;;6.70;;
37097;SDS011;63608;49.572;12.348;2023-06-26T06:25:49;8.67;;;6.27;;
37097;SDS011;63608;49.572;12.348;2023-06-26T06:27:51;7.83;;;6.03;;
37097;SDS011;63608;49.572;12.348;2023-06-26T06:29:53;9.80;;;6.23;;
37097;SDS011;63608;49.572;12.348;2023-06-26T06:31:55;8.37;;;6.20;;
37097;SDS011;63608;49.572;12.348;2023-06-26T06:33:57;9.13;;;6.30;;
37097;SDS011;63608;49.572;12.348;2023-06-26T06:35:59;8.70;;;6.00;;
37097;SDS011;63608;49.572;12.348;2023-06-26T06:38:03;8.63;;;5.70;;
37097;SDS011;63608;49.572;12.348;2023-06-26T06:40:05;8.23;;;5.37;;
37097;SDS011;63608;49.572;12.348;2023-06-26T06:42:08;8.00;;;5.90;;
37097;SDS011;63608;49.572;12.348;2023-06-26T06:44:10;6.80;;;4.80;;
37097;SDS011;63608;49.572;12.348;2023-06-26T06:46:12;6.80;;;4.77;;
37097;SDS011;63608;49.572;12.348;2023-06-26T06:48:14;7.93;;;5.20;;
37097;SDS011;63608;49.572;12.348;2023-06-26T06:50:16;6.97;;;4.40;;
37097;SDS011;63608;49.572;12.348;2023-06-26T06:52:19;5.27;;;4.30;;
37097;SDS011;63608;49.572;12.348;2023-06-26T06:54:25;6.63;;;4.30;;
37097;SDS011;63608;49.572;12.348;2023-06-26T06:56:28;6.63;;;4.73;;
37097;SDS011;63608;49.572;12.348;2023-06-26T06:58:30;5.50;;;4.27;;
37097;SDS011;63608;49.572;12.348;2023-06-26T07:00:34;6.87;;;4.40;;
37097;SDS011;63608;49.572;12.348;2023-06-26T07:02:36;5.67;;;3.70;;
37097;SDS011;63608;49.572;12.348;2023-06-26T07:04:38;7.37;;;4.37;;
37097;SDS011;63608;49.572;12.348;2023-06-26T07:06:40;6.60;;;3.80;;
37097;SDS011;63608;49.572;12.348;2023-06-26T07:08:42;4.63;;;3.70;;
37097;SDS011;63608;49.572;12.348;2023-06-26T07:10:45;5.73;;;4.20;;
37097;SDS011;63608;49.572;12.348;2023-06-26T07:12:47;4.70;;;3.47;;
37097;SDS011;63608;49.572;12.348;2023-06-26T07:14:50;5.97;;;4.13;;
37097;SDS011;63608;49.572;12.348;2023-06-26T07:16:52;6.20;;;3.90;;
37097;SDS011;63608;49.572;12.348;2023-06-26T07:18:54;4.90;;;3.67;;
37097;SDS011;63608;49.572;12.348;2023-06-26T07:20:57;4.33;;;3.50;;
37097;SDS011;63608;49.572;12.348;2023-06-26T07:22:59;5.13;;;3.93;;
37097;SDS011;63608;49.572;12.348;2023-06-26T07:25:01;5.77;;;4.23;;
37097;SDS011;63608;49.572;12.348;2023-06-26T07:27:05;5.70;;;4.27;;
37097;SDS011;63608;49.572;12.348;2023-06-26T07:29:07;5.83;;;4.00;;
37097;SDS011;63608;49.572;12.348;2023-06-26T07:31:09;5.70;;;3.90;;
37097;SDS011;63608;49.572;12.348;2023-06-26T07:33:11;8.20;;;4.70;;
37097;SDS011;63608;49.572;12.348;2023-06-26T07:35:13;5.10;;;3.90;;
37097;SDS011;63608;49.572;12.348;2023-06-26T07:37:16;7.00;;;4.30;;
37097;SDS011;63608;49.572;12.348;2023-06-26T07:39:18;4.80;;;3.90;;
37097;SDS011;63608;49.572;12.348;2023-06-26T07:41:20;6.50;;;4.20;;
37097;SDS011;63608;49.572;12.348;2023-06-26T07:43:24;5.43;;;3.73;;
37097;SDS011;63608;49.572;12.348;2023-06-26T07:45:26;4.80;;;3.60;;
37097;SDS011;63608;49.572;12.348;2023-06-26T07:47:28;5.90;;;3.40;;
37097;SDS011;63608;49.572;12.348;2023-06-26T07:49:30;4.90;;;3.73;;
37097;SDS011;63608;49.572;12.348;2023-06-26T07:51:32;5.53;;;3.53;;
37097;SDS011;63608;49.572;12.348;2023-06-26T07:53:34;5.37;;;3.70;;
37097;SDS011;63608;49.572;12.348;2023-06-26T07:55:36;5.53;;;3.87;;
37097;SDS011;63608;49.572;12.348;2023-06-26T07:57:39;5.13;;;3.97;;
37097;SDS011;63608;49.572;12.348;2023-06-26T07:59:42;5.17;;;3.63;;
37097;SDS011;63608;49.572;12.348;2023-06-26T08:01:44;4.90;;;3.60;;
37097;SDS011;63608;49.572;12.348;2023-06-26T08:03:46;5.90;;;3.63;;
37097;SDS011;63608;49.572;12.348;2023-06-26T08:05:48;4.60;;;4.07;;
37097;SDS011;63608;49.572;12.348;2023-06-26T08:07:51;6.90;;;4.30;;
37097;SDS011;63608;49.572;12.348;2023-06-26T08:09:54;4.67;;;3.33;;
37097;SDS011;63608;49.572;12.348;2023-06-26T08:11:56;5.93;;;4.50;;
37097;SDS011;63608;49.572;12.348;2023-06-26T08:13:58;6.63;;;4.10;;
37097;SDS011;63608;49.572;12.348;2023-06-26T08:16:02;3.73;;;3.33;;
37097;SDS011;63608;49.572;12.348;2023-06-26T08:18:04;5.40;;;3.50;;
37097;SDS011;63608;49.572;12.348;2023-06-26T08:20:06;9.03;;;3.80;;
37097;SDS011;63608;49.572;12.348;2023-06-26T08:22:09;4.77;;;3.67;;
37097;SDS011;63608;49.572;12.348;2023-06-26T08:24:11;5.07;;;3.60;;
37097;SDS011;63608;49.572;12.348;2023-06-26T08:26:16;5.50;;;4.10;;
37097;SDS011;63608;49.572;12.348;2023-06-26T08:28:18;5.00;;;3.70;;
37097;SDS011;63608;49.572;12.348;2023-06-26T08:30:20;6.73;;;3.67;;
37097;SDS011;63608;49.572;12.348;2023-06-26T08:32:24;4.83;;;3.77;;
37097;SDS011;63608;49.572;12.348;2023-06-26T08:34:26;5.60;;;4.20;;
37097;SDS011;63608;49.572;12.348;2023-06-26T08:36:28;4.60;;;3.80;;
37097;SDS011;63608;49.572;12.348;2023-06-26T08:38:30;6.30;;;4.37;;
37097;SDS011;63608;49.572;12.348;2023-06-26T08:40:33;5.23;;;4.10;;
37097;SDS011;63608;49.572;12.348;2023-06-26T08:42:36;5.10;;;3.63;;
37097;SDS011;63608;49.572;12.348;2023-06-26T08:44:38;6.33;;;4.03;;
37097;SDS011;63608;49.572;12.348;2023-06-26T08:46:40;5.53;;;4.20;;
37097;SDS011;63608;49.572;12.348;2023-06-26T08:48:45;9.30;;;4.20;;
37097;SDS011;63608;49.572;12.348;2023-06-26T08:50:49;4.70;;;3.60;;
37097;SDS011;63608;49.572;12.348;2023-06-26T08:52:56;5.93;;;3.70;;
37097;SDS011;63608;49.572;12.348;2023-06-26T08:55:01;7.60;;;4.27;;
37097;SDS011;63608;49.572;12.348;2023-06-26T08:57:04;5.70;;;3.97;;
37097;SDS011;63608;49.572;12.348;2023-06-26T08:59:07;6.33;;;4.20;;
37097;SDS011;63608;49.572;12.348;2023-06-26T09:01:10;6.27;;;4.50;;
37097;SDS011;63608;49.572;12.348;2023-06-26T09:03:13;5.50;;;4.13;;
37097;SDS011;63608;49.572;12.348;2023-06-26T09:05:16;6.20;;;4.10;;
37097;SDS011;63608;49.572;12.348;2023-06-26T09:07:19;5.60;;;4.20;;
37097;SDS011;63608;49.572;12.348;2023-06-26T09:09:21;6.23;;;4.43;;
37097;SDS011;63608;49.572;12.348;2023-06-26T09:11:23;7.30;;;4.40;;
37097;SDS011;63608;49.572;12.348;2023-06-26T09:13:25;5.33;;;3.70;;
37097;SDS011;63608;49.572;12.348;2023-06-26T09:15:36;7.10;;;4.30;;
37097;SDS011;63608;49.572;12.348;2023-06-26T09:17:39;4.50;;;3.80;;
37097;SDS011;63608;49.572;12.348;2023-06-26T09:19:45;6.50;;;4.00;;
37097;SDS011;63608;49.572;12.348;2023-06-26T09:21:48;6.50;;;3.77;;
37097;SDS011;63608;49.572;12.348;2023-06-26T09:23:51;9.47;;;4.37;;
37097;SDS011;63608;49.572;12.348;2023-06-26T09:25:54;5.40;;;4.40;;
37097;SDS011;63608;49.572;12.348;2023-06-26T09:27:57;5.83;;;3.97;;
37097;SDS011;63608;49.572;12.348;2023-06-26T09:29:59;5.90;;;4.03;;
37097;SDS011;63608;49.572;12.348;2023-06-26T09:32:01;7.47;;;4.20;;
37097;SDS011;63608;49.572;12.348;2023-06-26T09:36:26;7.63;;;4.10;;
37097;SDS011;63608;49.572;12.348;2023-06-26T09:38:35;4.97;;;3.33;;
37097;SDS011;63608;49.572;12.348;2023-06-26T09:40:37;8.23;;;4.37;;
37097;SDS011;63608;49.572;12.348;2023-06-26T09:42:39;7.30;;;4.30;;
37097;SDS011;63608;49.572;12.348;2023-06-26T09:44:43;12.40;;;4.40;;
37097;SDS011;63608;49.572;12.348;2023-06-26T09:46:45;7.40;;;4.50;;
37097;SDS011;63608;49.572;12.348;2023-06-26T09:48:47;6.33;;;4.27;;
37097;SDS011;63608;49.572;12.348;2023-06-26T09:50:50;5.03;;;3.90;;
37097;SDS011;63608;49.572;12.348;2023-06-26T09:52:52;5.50;;;4.00;;
37097;SDS011;63608;49.572;12.348;2023-06-26T09:55:08;4.87;;;3.90;;
37097;SDS011;63608;49.572;12.348;2023-06-26T09:57:11;6.60;;;3.77;;
37097;SDS011;63608;49.572;12.348;2023-06-26T09:59:14;6.50;;;4.60;;
37097;SDS011;63608;49.572;12.348;2023-06-26T10:01:17;5.27;;;3.57;;
37097;SDS011;63608;49.572;12.348;2023-06-26T10:03:19;7.00;;;4.00;;
37097;SDS011;63608;49.572;12.348;2023-06-26T10:05:21;5.53;;;4.13;;
37097;SDS011;63608;49.572;12.348;2023-06-26T10:07:23;7.00;;;4.30;;
37097;SDS011;63608;49.572;12.348;2023-06-26T10:09:25;5.90;;;4.10;;
37097;SDS011;63608;49.572;12.348;2023-06-26T10:11:29;6.33;;;4.20;;
37097;SDS011;63608;49.572;12.348;2023-06-26T10:13:38;7.33;;;3.70;;
37097;SDS011;63608;49.572;12.348;2023-06-26T10:15:41;8.53;;;4.47;;
37097;SDS011;63608;49.572;12.348;2023-06-26T10:17:46;4.20;;;3.43;;
37097;SDS011;63608;49.572;12.348;2023-06-26T10:19:48;6.67;;;4.17;;
37097;SDS011;63608;49.572;12.348;2023-06-26T10:21:51;6.67;;;3.80;;
37097;SDS011;63608;49.572;12.348;2023-06-26T10:23:54;5.00;;;3.60;;
37097;SDS011;63608;49.572;12.348;2023-06-26T10:25:58;4.80;;;3.87;;
37097;SDS011;63608;49.572;12.348;2023-06-26T10:28:02;5.80;;;4.10;;
37097;SDS011;63608;49.572;12.348;2023-06-26T10:30:05;5.50;;;4.10;;
37097;SDS011;63608;49.572;12.348;2023-06-26T10:32:11;5.77;;;4.27;;
37097;SDS011;63608;49.572;12.348;2023-06-26T10:34:14;6.13;;;4.17;;
37097;SDS011;63608;49.572;12.348;2023-06-26T10:36:17;6.50;;;4.57;;
37097;SDS011;63608;49.572;12.348;2023-06-26T10:38:19;7.33;;;4.77;;
37097;SDS011;63608;49.572;12.348;2023-06-26T10:40:22;5.20;;;3.77;;
37097;SDS011;63608;49.572;12.348;2023-06-26T10:42:34;4.00;;;3.40;;
37097;SDS011;63608;49.572;12.348;2023-06-26T10:44:41;4.43;;;3.67;;
37097;SDS011;63608;49.572;12.348;2023-06-26T10:46:48;5.57;;;3.97;;
37097;SDS011;63608;49.572;12.348;2023-06-26T10:48:56;6.87;;;4.60;;
37097;SDS011;63608;49.572;12.348;2023-06-26T10:50:59;5.93;;;4.27;;
37097;SDS011;63608;49.572;12.348;2023-06-26T10:53:15;5.47;;;3.70;;
37097;SDS011;63608;49.572;12.348;2023-06-26T10:55:27;6.20;;;3.70;;
37097;SDS011;63608;49.572;12.348;2023-06-26T10:57:29;5.90;;;3.73;;
37097;SDS011;63608;49.572;12.348;2023-06-26T10:59:31;6.37;;;4.20;;
37097;SDS011;63608;49.572;12.348;2023-06-26T11:01:37;5.30;;;3.97;;
37097;SDS011;63608;49.572;12.348;2023-06-26T11:03:43;4.80;;;3.90;;
37097;SDS011;63608;49.572;12.348;2023-06-26T11:05:47;6.50;;;4.00;;
37097;SDS011;63608;49.572;12.348;2023-06-26T11:08:12;6.50;;;4.30;;
37097;SDS011;63608;49.572;12.348;2023-06-26T11:10:19;6.70;;;4.37;;
37097;SDS011;63608;49.572;12.348;2023-06-26T11:12:36;6.43;;;4.33;;
37097;SDS011;63608;49.572;12.348;2023-06-26T11:14:39;5.67;;;4.20;;
37097;SDS011;63608;49.572;12.348;2023-06-26T11:16:43;7.43;;;4.23;;
37097;SDS011;63608;49.572;12.348;2023-06-26T11:18:45;6.40;;;4.13;;
37097;SDS011;63608;49.572;12.348;2023-06-26T11:20:47;8.87;;;4.77;;
37097;SDS011;63608;49.572;12.348;2023-06-26T11:22:49;6.53;;;4.87;;
37097;SDS011;63608;49.572;12.348;2023-06-26T11:24:53;6.23;;;4.23;;
37097;SDS011;63608;49.572;12.348;2023-06-26T11:26:59;7.77;;;5.33;;
37097;SDS011;63608;49.572;12.348;2023-06-26T11:29:02;5.40;;;4.20;;
37097;SDS011;63608;49.572;12.348;2023-06-26T11:31:04;6.93;;;4.50;;
37097;SDS011;63608;49.572;12.348;2023-06-26T11:33:08;6.53;;;4.47;;
37097;SDS011;63608;49.572;12.348;2023-06-26T11:35:11;7.27;;;4.70;;
37097;SDS011;63608;49.572;12.348;2023-06-26T11:37:16;6.70;;;4.33;;
37097;SDS011;63608;49.572;12.348;2023-06-26T11:39:18;8.83;;;5.07;;
37097;SDS011;63608;49.572;12.348;2023-06-26T11:41:20;6.40;;;4.90;;
37097;SDS011;63608;49.572;12.348;2023-06-26T11:43:22;6.10;;;4.33;;
37097;SDS011;63608;49.572;12.348;2023-06-26T11:45:25;5.50;;;4.17;;
37097;SDS011;63608;49.572;12.348;2023-06-26T11:47:28;5.70;;;4.10;;
37097;SDS011;63608;49.572;12.348;2023-06-26T11:49:32;6.90;;;4.10;;
37097;SDS011;63608;49.572;12.348;2023-06-26T11:51:34;7.60;;;4.43;;
37097;SDS011;63608;49.572;12.348;2023-06-26T11:53:39;6.90;;;4.93;;
37097;SDS011;63608;49.572;12.348;2023-06-26T11:55:41;6.00;;;4.37;;
37097;SDS011;63608;49.572;12.348;2023-06-26T11:57:47;7.33;;;4.80;;
37097;SDS011;63608;49.572;12.348;2023-06-26T11:59:50;7.40;;;4.60;;
37097;SDS011;63608;49.572;12.348;2023-06-26T12:01:52;9.00;;;3.93;;
37097;SDS011;63608;49.572;12.348;2023-06-26T12:03:58;6.23;;;4.30;;
37097;SDS011;63608;49.572;12.348;2023-06-26T12:06:02;8.43;;;4.40;;
37097;SDS011;63608;49.572;12.348;2023-06-26T12:08:06;8.20;;;4.63;;
37097;SDS011;63608;49.572;12.348;2023-06-26T12:10:09;7.23;;;4.67;;
37097;SDS011;63608;49.572;12.348;2023-06-26T12:12:11;8.87;;;4.70;;